createdAt,value
2022-09-28T00:00:58.684Z,14.09
2022-09-28T00:03:25.783Z,14.20
2022-09-28T00:05:52.327Z,14.18
2022-09-28T00:08:18.956Z,14.07
2022-09-28T00:10:54.199Z,14.02
2022-09-28T00:13:20.820Z,13.87
2022-09-28T00:15:47.368Z,13.64
2022-09-28T00:18:13.976Z,13.69
2022-09-28T00:20:40.588Z,13.76
2022-09-28T00:23:07.159Z,13.84
2022-09-28T00:25:33.804Z,13.79
2022-09-28T00:28:00.631Z,11.53
2022-09-28T00:30:27.187Z,13.33
2022-09-28T00:32:53.810Z,13.18
2022-09-28T00:35:20.423Z,13.32
2022-09-28T00:37:49.119Z,13.41
2022-09-28T00:40:15.868Z,13.40
2022-09-28T00:42:42.994Z,13.03
2022-09-28T00:45:10.006Z,13.46
2022-09-28T00:47:53.764Z,13.46
2022-09-28T00:50:26.119Z,13.47
2022-09-28T00:53:02.282Z,13.32
2022-09-28T00:55:39.120Z,13.07
2022-09-28T00:58:09.457Z,13.43
2022-09-28T01:00:36.192Z,13.46
2022-09-28T01:03:04.049Z,13.35
2022-09-28T01:05:30.742Z,13.09
2022-09-28T01:07:57.862Z,13.51
2022-09-28T01:10:25.284Z,13.48
2022-09-28T01:12:51.827Z,13.46
2022-09-28T01:15:21.844Z,12.93
2022-09-28T01:18:00.743Z,12.94
2022-09-28T01:20:34.746Z,13.33
2022-09-28T01:23:38.724Z,13.37
2022-09-28T01:26:44.656Z,13.23
2022-09-28T01:29:17.689Z,13.13
2022-09-28T01:31:51.286Z,13.17
2022-09-28T01:34:21.279Z,13.12
2022-09-28T01:36:55.472Z,13.13
2022-09-28T01:39:30.318Z,13.05
2022-09-28T01:42:03.132Z,12.93
2022-09-28T01:44:37.406Z,12.58
2022-09-28T01:47:04.966Z,12.39
2022-09-28T01:49:41.033Z,12.96
2022-09-28T01:52:18.333Z,12.96
2022-09-28T01:55:30.298Z,12.91
2022-09-28T01:58:00.909Z,12.83
2022-09-28T02:00:28.348Z,12.85
2022-09-28T02:03:18.379Z,12.87
2022-09-28T02:05:53.919Z,12.73
2022-09-28T02:08:28.527Z,11.84
2022-09-28T02:11:03.040Z,12.52
2022-09-28T02:13:38.028Z,12.52
2022-09-28T02:16:17.141Z,12.37
2022-09-28T02:18:45.176Z,12.29
2022-09-28T02:21:22.824Z,12.32
2022-09-28T02:24:04.171Z,10.07
2022-09-28T02:26:36.103Z,12.30
2022-09-28T02:29:02.813Z,12.37
2022-09-28T02:31:29.549Z,12.10
2022-09-28T02:33:57.686Z,12.28
2022-09-28T02:36:25.897Z,12.20
2022-09-28T02:38:53.258Z,12.24
2022-09-28T02:41:38.372Z,12.36
2022-09-28T02:44:17.064Z,12.35
2022-09-28T02:47:16.576Z,12.32
2022-09-28T02:49:52.224Z,12.18
2022-09-28T02:52:55.568Z,12.17
2022-09-28T02:55:40.346Z,12.13
2022-09-28T02:58:40.647Z,12.10
2022-09-28T03:01:07.254Z,12.08
2022-09-28T03:03:42.628Z,12.04
2022-09-28T03:06:27.181Z,11.77
2022-09-28T03:09:04.752Z,11.98
2022-09-28T03:11:49.388Z,11.92
2022-09-28T03:14:16.206Z,12.05
2022-09-28T03:16:46.635Z,11.78
2022-09-28T03:19:14.700Z,11.37
2022-09-28T03:21:41.442Z,11.90
2022-09-28T03:24:10.568Z,12.01
2022-09-28T03:26:40.023Z,12.05
2022-09-28T03:29:06.903Z,11.84
2022-09-28T03:31:33.794Z,11.24
2022-09-28T03:34:00.423Z,11.99
2022-09-28T03:36:26.989Z,11.91
2022-09-28T03:38:56.598Z,11.65
2022-09-28T03:41:28.504Z,11.92
2022-09-28T03:43:55.224Z,11.84
2022-09-28T03:46:22.017Z,11.76
2022-09-28T03:48:48.627Z,10.94
2022-09-28T03:51:15.193Z,11.35
2022-09-28T03:53:41.794Z,11.66
2022-09-28T03:56:13.530Z,11.55
2022-09-28T03:58:40.203Z,10.98
2022-09-28T04:01:14.154Z,11.51
2022-09-28T04:03:45.225Z,11.54
2022-09-28T04:06:12.436Z,11.01
2022-09-28T04:08:39.378Z,11.37
2022-09-28T04:11:06.418Z,11.36
2022-09-28T04:13:33.146Z,11.18
2022-09-28T04:16:01.629Z,11.18
2022-09-28T04:18:29.261Z,11.53
2022-09-28T04:21:04.680Z,11.61
2022-09-28T04:23:31.315Z,11.68
2022-09-28T04:25:58.084Z,11.62
2022-09-28T04:28:43.981Z,11.47
2022-09-28T04:31:13.392Z,11.52
2022-09-28T04:33:40.038Z,11.56
2022-09-28T04:36:06.830Z,11.50
2022-09-28T04:38:51.620Z,11.72
2022-09-28T04:41:19.842Z,11.61
2022-09-28T04:43:50.155Z,11.77
2022-09-28T04:46:17.056Z,11.56
2022-09-28T04:48:43.933Z,11.94
2022-09-28T04:51:10.574Z,11.95
2022-09-28T04:53:37.277Z,12.10
2022-09-28T04:56:10.242Z,12.02
2022-09-28T04:58:37.402Z,11.69
2022-09-28T05:01:10.930Z,11.54
2022-09-28T05:03:38.268Z,12.18
2022-09-28T05:06:07.034Z,12.55
2022-09-28T05:08:35.315Z,12.12
2022-09-28T05:11:07.082Z,12.71
2022-09-28T05:13:41.725Z,12.77
2022-09-28T05:16:09.614Z,12.83
2022-09-28T05:18:36.288Z,12.89
2022-09-28T05:21:03.359Z,12.44
2022-09-28T05:23:29.990Z,12.98
2022-09-28T05:25:56.564Z,13.18
2022-09-28T05:28:26.762Z,13.24
2022-09-28T05:30:53.473Z,13.51
2022-09-28T05:33:20.527Z,13.37
2022-09-28T05:35:51.009Z,13.66
2022-09-28T05:38:20.079Z,13.83
2022-09-28T05:40:46.934Z,13.94
2022-09-28T05:43:13.548Z,13.65
2022-09-28T05:45:40.379Z,14.20
2022-09-28T05:48:07.087Z,12.94
2022-09-28T05:50:34.119Z,14.43
2022-09-28T05:53:03.206Z,13.34
2022-09-28T05:55:30.586Z,14.46
2022-09-28T05:58:05.892Z,15.05
2022-09-28T06:00:33.747Z,15.19
2022-09-28T06:03:08.666Z,15.25
2022-09-28T06:05:36.821Z,15.51
2022-09-28T06:08:05.361Z,15.66
2022-09-28T06:10:33.325Z,15.80
2022-09-28T06:13:00.462Z,14.97
2022-09-28T06:15:29.499Z,16.07
2022-09-28T06:18:14.888Z,15.73
2022-09-28T06:20:42.440Z,16.04
2022-09-28T06:23:10.713Z,16.36
2022-09-28T06:25:37.815Z,15.79
2022-09-28T06:28:12.394Z,14.84
2022-09-28T06:30:40.063Z,16.19
2022-09-28T06:33:08.436Z,16.54
2022-09-28T06:35:35.343Z,16.92
2022-09-28T06:38:02.265Z,16.67
2022-09-28T06:40:29.330Z,16.63
2022-09-28T06:43:12.591Z,17.16
2022-09-28T06:45:39.316Z,17.16
2022-09-28T06:48:06.774Z,17.37
2022-09-28T06:50:37.602Z,15.92
2022-09-28T06:53:06.835Z,17.32
2022-09-28T06:55:33.497Z,17.00
2022-09-28T06:58:02.230Z,17.58
2022-09-28T07:00:31.508Z,18.03
2022-09-28T07:02:58.342Z,17.90
2022-09-28T07:05:28.895Z,18.29
2022-09-28T07:07:56.794Z,18.41
2022-09-28T07:10:28.460Z,18.55
2022-09-28T07:12:56.957Z,18.14
2022-09-28T07:15:26.019Z,18.25
2022-09-28T07:18:03.130Z,17.73
2022-09-28T07:20:30.814Z,18.16
2022-09-28T07:23:16.081Z,18.33
2022-09-28T07:25:48.124Z,18.16
2022-09-28T07:28:15.246Z,18.87
2022-09-28T07:30:42.643Z,18.77
2022-09-28T07:33:12.666Z,19.04
2022-09-28T07:35:41.763Z,19.31
2022-09-28T07:38:10.294Z,19.48
2022-09-28T07:40:55.536Z,19.14
2022-09-28T07:43:22.591Z,19.16
2022-09-28T07:45:52.307Z,18.68
2022-09-28T07:48:19.852Z,18.03
2022-09-28T07:50:52.290Z,19.84
2022-09-28T07:53:20.267Z,19.88
2022-09-28T07:55:53.892Z,20.36
2022-09-28T07:58:20.780Z,20.18
2022-09-28T08:00:48.928Z,20.27
2022-09-28T08:03:22.499Z,20.58
2022-09-28T08:05:49.596Z,20.81
2022-09-28T08:08:16.268Z,20.96
2022-09-28T08:10:46.893Z,20.78
2022-09-28T08:13:15.374Z,21.18
2022-09-28T08:15:42.664Z,21.38
2022-09-28T08:18:09.886Z,20.96
2022-09-28T08:20:55.321Z,21.54
2022-09-28T08:23:21.997Z,21.68
2022-09-28T08:25:49.652Z,21.52
2022-09-28T08:28:17.759Z,21.94
2022-09-28T08:30:45.956Z,22.12
2022-09-28T08:33:13.685Z,22.00
2022-09-28T08:35:41.294Z,21.74
2022-09-28T08:38:08.767Z,22.11
2022-09-28T08:40:44.875Z,21.89
2022-09-28T08:43:29.472Z,23.00
2022-09-28T08:45:59.242Z,23.14
2022-09-28T08:48:56.374Z,22.72
2022-09-28T08:51:33.870Z,23.09
2022-09-28T08:54:11.021Z,22.57
2022-09-28T08:56:50.503Z,23.18
2022-09-28T08:59:25.069Z,22.78
2022-09-28T09:02:00.846Z,23.48
2022-09-28T09:04:27.630Z,23.21
2022-09-28T09:07:03.364Z,23.58
2022-09-28T09:09:49.884Z,23.70
2022-09-28T09:12:28.819Z,23.47
2022-09-28T09:15:13.126Z,23.47
2022-09-28T09:18:26.272Z,23.95
2022-09-28T09:20:58.534Z,24.15
2022-09-28T09:23:55.465Z,24.03
2022-09-28T09:26:39.277Z,23.77
2022-09-28T09:29:27.508Z,23.56
2022-09-28T09:32:16.769Z,23.52
2022-09-28T09:34:52.313Z,23.84
2022-09-28T09:37:37.679Z,24.07
2022-09-28T09:40:16.488Z,24.23
2022-09-28T09:43:05.651Z,23.78
2022-09-28T09:45:48.221Z,24.04
2022-09-28T09:48:31.773Z,24.16
2022-09-28T09:51:06.559Z,24.26
2022-09-28T09:53:40.752Z,24.64
2022-09-28T09:56:22.768Z,24.60
2022-09-28T09:58:54.117Z,23.84
2022-09-28T10:01:32.278Z,24.50
2022-09-28T10:03:59.961Z,24.10
2022-09-28T10:06:31.717Z,24.42
2022-09-28T10:09:10.143Z,24.32
2022-09-28T10:11:42.458Z,23.75
2022-09-28T10:14:15.050Z,24.17
2022-09-28T10:16:43.053Z,24.05
2022-09-28T10:19:13.374Z,24.32
2022-09-28T10:21:42.236Z,24.13
2022-09-28T10:24:17.491Z,24.67
2022-09-28T10:26:49.799Z,25.11
2022-09-28T10:29:20.945Z,24.85
2022-09-28T10:31:50.257Z,23.18
2022-09-28T10:34:19.765Z,25.69
2022-09-28T10:36:59.987Z,25.94
2022-09-28T10:39:29.885Z,26.15
2022-09-28T10:41:58.758Z,26.35
2022-09-28T10:44:26.188Z,26.33
2022-09-28T10:47:17.077Z,26.52
2022-09-28T10:49:47.542Z,26.48
2022-09-28T10:52:42.849Z,26.34
2022-09-28T10:55:21.424Z,25.89
2022-09-28T10:57:48.341Z,25.60
2022-09-28T11:00:32.180Z,25.31
2022-09-28T11:03:00.731Z,25.05
2022-09-28T11:05:28.257Z,24.86
2022-09-28T11:07:56.696Z,25.48
2022-09-28T11:10:33.528Z,25.43
2022-09-28T11:13:00.956Z,24.88
2022-09-28T11:15:31.601Z,24.93
2022-09-28T11:18:19.379Z,24.62
2022-09-28T11:20:46.345Z,25.12
2022-09-28T11:23:22.201Z,25.40
2022-09-28T11:26:02.744Z,25.58
2022-09-28T11:28:32.872Z,25.42
2022-09-28T11:31:00.423Z,25.25
2022-09-28T11:33:36.543Z,25.78
2022-09-28T11:36:17.115Z,25.81
2022-09-28T11:39:11.699Z,25.85
2022-09-28T11:41:51.727Z,25.91
2022-09-28T11:44:44.582Z,25.88
2022-09-28T11:47:28.856Z,25.85
2022-09-28T11:49:56.237Z,25.83
2022-09-28T11:52:32.597Z,25.00
2022-09-28T11:55:17.323Z,26.18
2022-09-28T11:57:48.925Z,24.44
2022-09-28T12:00:20.808Z,26.30
2022-09-28T12:03:13.789Z,26.38
2022-09-28T12:05:52.387Z,25.50
2022-09-28T12:08:30.677Z,26.18
2022-09-28T12:10:58.394Z,26.24
2022-09-28T12:13:33.056Z,26.30
2022-09-28T12:21:30.432Z,26.11
2022-09-28T12:24:04.202Z,25.21
2022-09-28T12:26:46.221Z,24.25
2022-09-28T12:29:26.727Z,25.46
2022-09-28T12:31:58.204Z,25.64
2022-09-28T12:34:24.885Z,25.83
2022-09-28T12:37:09.803Z,26.11
2022-09-28T12:39:58.060Z,25.97
2022-09-28T12:42:41.251Z,24.30
2022-09-28T12:45:30.998Z,25.95
2022-09-28T12:48:14.452Z,26.00
2022-09-28T12:50:57.904Z,25.54
2022-09-28T12:53:43.489Z,26.01
2022-09-28T12:56:34.007Z,26.03
2022-09-28T12:59:15.123Z,25.89
2022-09-28T13:02:01.337Z,26.16
2022-09-28T13:04:47.311Z,26.27
2022-09-28T13:07:37.933Z,26.23
2022-09-28T13:10:22.655Z,26.26
2022-09-28T13:12:58.294Z,26.20
2022-09-28T13:15:44.065Z,26.17
2022-09-28T13:18:27.530Z,26.12
2022-09-28T13:21:03.354Z,26.29
2022-09-28T13:23:35.837Z,26.49
2022-09-28T13:26:40.876Z,24.74
2022-09-28T13:29:14.705Z,24.23
2022-09-28T13:31:49.153Z,25.73
2022-09-28T13:34:20.645Z,26.18
2022-09-28T13:37:23.435Z,24.67
2022-09-28T13:39:56.491Z,26.12
2022-09-28T13:42:35.153Z,26.08
2022-09-28T13:45:06.386Z,26.08
2022-09-28T13:47:51.755Z,25.97
2022-09-28T13:50:49.171Z,26.01
2022-09-28T13:53:37.490Z,26.93
2022-09-28T13:56:04.005Z,28.18
2022-09-28T13:58:44.241Z,28.09
2022-09-28T14:01:17.752Z,27.77
2022-09-28T14:04:09.559Z,26.79
2022-09-28T14:06:36.801Z,26.57
2022-09-28T14:09:06.412Z,26.45
2022-09-28T14:11:35.823Z,26.28
2022-09-28T14:14:08.770Z,26.23
2022-09-28T14:16:36.973Z,25.88
2022-09-28T14:19:22.351Z,25.98
2022-09-28T14:21:54.861Z,25.93
2022-09-28T14:25:03.191Z,25.86
2022-09-28T14:28:01.100Z,25.69
2022-09-28T14:30:45.318Z,25.65
2022-09-28T14:33:21.084Z,25.66
2022-09-28T14:35:58.365Z,25.48
2022-09-28T14:39:05.341Z,25.59
2022-09-28T14:41:38.219Z,25.27
2022-09-28T14:44:10.731Z,25.50
2022-09-28T14:46:48.163Z,25.46
2022-09-28T14:49:17.771Z,25.41
2022-09-28T14:51:53.366Z,25.36
2022-09-28T14:54:21.704Z,25.37
2022-09-28T14:56:54.467Z,25.31
2022-09-28T14:59:36.168Z,25.31
2022-09-28T15:02:18.381Z,25.32
2022-09-28T15:05:08.756Z,25.27
2022-09-28T15:07:51.665Z,25.23
2022-09-28T15:10:39.165Z,25.23
2022-09-28T15:13:25.827Z,25.17
2022-09-28T15:15:59.633Z,25.03
2022-09-28T15:18:52.184Z,25.10
2022-09-28T15:21:19.037Z,24.79
2022-09-28T15:23:46.877Z,24.97
2022-09-28T15:26:32.929Z,24.84
2022-09-28T15:29:03.349Z,24.58
2022-09-28T15:31:35.349Z,24.56
2022-09-28T15:34:20.503Z,24.47
2022-09-28T15:36:47.569Z,24.35
2022-09-28T15:39:20.893Z,23.88
2022-09-28T15:41:50.213Z,24.05
2022-09-28T15:44:37.128Z,23.90
2022-09-28T15:47:09.789Z,23.54
2022-09-28T15:50:04.922Z,23.63
2022-09-28T15:52:44.970Z,23.47
2022-09-28T15:55:17.559Z,23.34
2022-09-28T15:57:44.539Z,23.26
2022-09-28T16:00:28.969Z,23.12
2022-09-28T16:03:09.095Z,23.08
2022-09-28T16:05:42.947Z,22.66
2022-09-28T16:08:24.813Z,22.68
2022-09-28T16:11:10.910Z,22.18
2022-09-28T16:13:45.240Z,22.46
2022-09-28T16:16:16.440Z,21.84
2022-09-28T16:18:48.587Z,21.14
2022-09-28T16:21:27.885Z,21.41
2022-09-28T16:23:58.525Z,21.33
2022-09-28T16:26:32.212Z,21.42
2022-09-28T16:28:59.791Z,21.24
2022-09-28T16:31:33.820Z,21.11
2022-09-28T16:34:09.579Z,21.03
2022-09-28T16:36:45.322Z,20.63
2022-09-28T16:39:16.791Z,20.69
2022-09-28T16:41:48.345Z,20.55
2022-09-28T16:44:24.650Z,20.32
2022-09-28T16:46:55.217Z,20.09
2022-09-28T16:49:23.777Z,19.92
2022-09-28T16:51:50.420Z,19.66
2022-09-28T16:54:43.992Z,19.69
2022-09-28T16:57:14.806Z,19.53
2022-09-28T16:59:41.508Z,19.46
2022-09-28T17:02:46.678Z,19.13
2022-09-28T17:05:15.787Z,19.10
2022-09-28T17:07:44.543Z,19.08
2022-09-28T17:11:12.633Z,19.26
2022-09-28T17:13:35.913Z,19.19
2022-09-28T17:16:10.958Z,19.17
2022-09-28T17:18:39.177Z,18.75
2022-09-28T17:21:09.772Z,18.96
2022-09-28T17:23:36.350Z,18.94
2022-09-28T17:26:04.064Z,18.83
2022-09-28T17:28:33.439Z,18.47
2022-09-28T17:31:00.373Z,18.19
2022-09-28T17:33:27.261Z,18.65
2022-09-28T17:36:00.162Z,18.56
2022-09-28T17:38:27.435Z,18.60
2022-09-28T17:40:54.165Z,18.49
2022-09-28T17:43:22.222Z,18.34
2022-09-28T17:45:50.395Z,17.85
2022-09-28T17:48:23.044Z,17.58
2022-09-28T17:50:50.645Z,17.93
2022-09-28T17:53:17.600Z,17.41
2022-09-28T17:55:44.315Z,17.40
2022-09-28T17:58:19.689Z,17.60
2022-09-28T18:00:48.239Z,17.47
2022-09-28T18:03:25.373Z,17.30
2022-09-28T18:06:22.789Z,17.79
2022-09-28T18:08:50.019Z,17.33
2022-09-28T18:11:17.426Z,17.79
2022-09-28T18:13:46.017Z,17.96
2022-09-28T18:16:14.311Z,18.06
2022-09-28T18:18:41.094Z,18.20
2022-09-28T18:21:08.973Z,18.22
2022-09-28T18:23:37.670Z,18.27
2022-09-28T18:26:07.598Z,18.17
2022-09-28T18:28:34.432Z,18.16
2022-09-28T18:31:07.761Z,17.92
2022-09-28T18:33:35.220Z,18.11
2022-09-28T18:36:02.187Z,18.16
2022-09-28T18:38:28.844Z,17.88
2022-09-28T18:40:56.603Z,18.00
2022-09-28T18:43:23.620Z,18.13
2022-09-28T18:45:50.281Z,18.00
2022-09-28T18:48:16.993Z,18.11
2022-09-28T18:50:43.595Z,18.25
2022-09-28T18:53:13.380Z,18.04
2022-09-28T18:55:41.710Z,17.91
2022-09-28T18:58:10.601Z,18.28
2022-09-28T19:00:39.669Z,18.37
2022-09-28T19:03:07.761Z,18.41
2022-09-28T19:05:35.316Z,18.29
2022-09-28T19:08:02.437Z,18.47
2022-09-28T19:10:29.282Z,18.51
2022-09-28T19:12:55.943Z,18.51
2022-09-28T19:15:22.844Z,18.60
2022-09-28T19:17:50.434Z,18.51
2022-09-28T19:20:17.371Z,18.45
2022-09-28T19:22:44.652Z,18.35
2022-09-28T19:25:13.295Z,18.37
2022-09-28T19:27:40.001Z,18.45
2022-09-28T19:30:07.414Z,18.36
2022-09-28T19:32:34.085Z,18.45
2022-09-28T19:35:00.668Z,18.58
2022-09-28T19:37:27.205Z,18.55
2022-09-28T19:39:53.785Z,18.60
2022-09-28T19:42:20.549Z,17.81
2022-09-28T19:44:47.446Z,18.60
2022-09-28T19:47:14.030Z,18.08
2022-09-28T19:49:41.028Z,18.09
2022-09-28T19:52:15.861Z,18.24
2022-09-28T19:55:05.784Z,18.50
2022-09-28T19:57:32.980Z,18.19
2022-09-28T20:00:03.519Z,18.45
2022-09-28T20:02:30.563Z,18.35
2022-09-28T20:04:57.270Z,18.02
2022-09-28T20:07:23.820Z,18.06
2022-09-28T20:09:50.386Z,18.32
2022-09-28T20:12:16.982Z,18.34
2022-09-28T20:14:43.551Z,18.26
2022-09-28T20:17:10.105Z,18.47
2022-09-28T20:19:36.750Z,18.50
2022-09-28T20:22:03.989Z,18.27
2022-09-28T20:24:31.307Z,18.41
2022-09-28T20:26:58.380Z,18.34
2022-09-28T20:29:25.228Z,18.39
2022-09-28T20:31:52.263Z,18.02
2022-09-28T20:34:18.882Z,18.24
2022-09-28T20:36:45.462Z,18.03
2022-09-28T20:39:12.487Z,17.97
2022-09-28T20:41:39.242Z,17.95
2022-09-28T20:44:06.889Z,17.78
2022-09-28T20:46:35.228Z,17.72
2022-09-28T20:49:02.007Z,17.17
2022-09-28T20:51:28.677Z,16.88
2022-09-28T20:53:57.336Z,17.02
2022-09-28T20:56:26.803Z,17.04
2022-09-28T20:58:54.225Z,17.03
2022-09-28T21:01:26.294Z,17.03
2022-09-28T21:04:01.073Z,17.03
2022-09-28T21:06:29.879Z,16.93
2022-09-28T21:08:57.009Z,17.01
2022-09-28T21:11:25.360Z,17.08
2022-09-28T21:13:53.735Z,17.03
2022-09-28T21:16:20.931Z,16.56
2022-09-28T21:18:48.301Z,16.82
2022-09-28T21:21:17.639Z,16.63
2022-09-28T21:23:45.015Z,16.74
2022-09-28T21:26:24.416Z,16.59
2022-09-28T21:28:55.596Z,16.22
2022-09-28T21:31:28.511Z,16.36
2022-09-28T21:33:55.692Z,16.04
2022-09-28T21:36:22.272Z,15.70
2022-09-28T21:38:49.379Z,15.49
2022-09-28T21:41:16.350Z,15.96
2022-09-28T21:43:43.090Z,16.00
2022-09-28T21:46:10.221Z,15.89
2022-09-28T21:48:36.838Z,15.84
2022-09-28T21:51:08.616Z,16.15
2022-09-28T21:53:36.840Z,15.52
2022-09-28T21:56:06.259Z,16.12
2022-09-28T21:58:35.397Z,15.93
2022-09-28T22:01:15.534Z,16.11
2022-09-28T22:03:47.424Z,15.76
2022-09-28T22:06:15.471Z,15.78
2022-09-28T22:08:42.106Z,15.82
2022-09-28T22:11:12.087Z,15.62
2022-09-28T22:13:47.105Z,15.62
2022-09-28T22:16:15.187Z,15.67
2022-09-28T22:18:42.371Z,15.61
2022-09-28T22:21:14.960Z,15.57
2022-09-28T22:23:41.823Z,15.62
2022-09-28T22:26:11.726Z,15.58
2022-09-28T22:28:44.258Z,15.64
2022-09-28T22:31:10.915Z,15.59
2022-09-28T22:33:37.532Z,15.35
2022-09-28T22:36:04.212Z,15.70
2022-09-28T22:38:32.420Z,15.66
2022-09-28T22:40:59.099Z,15.76
2022-09-28T22:43:26.854Z,15.81
2022-09-28T22:46:14.639Z,15.94
2022-09-28T22:48:42.529Z,15.82
2022-09-28T22:51:09.124Z,15.61
2022-09-28T22:53:35.925Z,15.70
2022-09-28T22:56:05.658Z,15.67
2022-09-28T22:58:36.219Z,15.65
2022-09-28T23:01:17.773Z,15.58
2022-09-28T23:03:45.220Z,14.97
2022-09-28T23:06:14.236Z,15.44
2022-09-28T23:08:40.860Z,14.95
2022-09-28T23:11:07.479Z,15.35
2022-09-28T23:13:35.145Z,15.35
2022-09-28T23:16:05.249Z,15.41
2022-09-28T23:18:34.108Z,15.39
2022-09-28T23:21:03.058Z,15.35
2022-09-28T23:23:30.203Z,15.10
2022-09-28T23:25:56.931Z,15.00
2022-09-28T23:28:25.455Z,14.52
2022-09-28T23:30:52.805Z,14.98
2022-09-28T23:33:20.637Z,14.83
2022-09-28T23:35:47.328Z,14.45
2022-09-28T23:38:17.970Z,14.89
2022-09-28T23:40:46.385Z,14.85
2022-09-28T23:43:13.803Z,14.75
2022-09-28T23:45:43.088Z,14.77
2022-09-28T23:48:10.015Z,14.44
2022-09-28T23:50:36.624Z,14.11
2022-09-28T23:53:03.217Z,14.29
2022-09-28T23:55:29.779Z,14.19
2022-09-28T23:57:58.133Z,14.54
